sensor_id;sensor_type;location;lat;lon;timestamp;P1;durP1;ratioP1;P2;durP2;ratioP2
8675;SDS011;4375;52.486;13.424;2024-02-26T00:01:00;34.00;;;15.03;;
8675;SDS011;4375;52.486;13.424;2024-02-26T00:03:26;30.47;;;14.53;;
8675;SDS011;4375;52.486;13.424;2024-02-26T00:05:52;34.13;;;15.53;;
8675;SDS011;4375;52.486;13.424;2024-02-26T00:08:17;28.13;;;13.93;;
8675;SDS011;4375;52.486;13.424;2024-02-26T00:10:43;31.13;;;14.23;;
8675;SDS011;4375;52.486;13.424;2024-02-26T00:13:09;39.23;;;14.77;;
8675;SDS011;4375;52.486;13.424;2024-02-26T00:15:34;34.20;;;14.63;;
8675;SDS011;4375;52.486;13.424;2024-02-26T00:18:00;31.13;;;14.50;;
8675;SDS011;4375;52.486;13.424;2024-02-26T00:20:26;30.77;;;14.20;;
8675;SDS011;4375;52.486;13.424;2024-02-26T00:22:52;35.90;;;14.40;;
8675;SDS011;4375;52.486;13.424;2024-02-26T00:25:17;31.97;;;14.23;;
8675;SDS011;4375;52.486;13.424;2024-02-26T00:27:43;32.13;;;13.90;;
8675;SDS011;4375;52.486;13.424;2024-02-26T00:30:09;31.37;;;15.03;;
8675;SDS011;4375;52.486;13.424;2024-02-26T00:32:35;32.30;;;13.50;;
8675;SDS011;4375;52.486;13.424;2024-02-26T00:35:01;27.70;;;12.73;;
8675;SDS011;4375;52.486;13.424;2024-02-26T00:37:26;27.80;;;12.40;;
8675;SDS011;4375;52.486;13.424;2024-02-26T00:39:52;25.40;;;9.90;;
8675;SDS011;4375;52.486;13.424;2024-02-26T00:42:19;29.03;;;11.30;;
8675;SDS011;4375;52.486;13.424;2024-02-26T00:44:44;26.10;;;11.20;;
8675;SDS011;4375;52.486;13.424;2024-02-26T00:47:10;27.40;;;10.80;;
8675;SDS011;4375;52.486;13.424;2024-02-26T00:49:36;25.10;;;9.63;;
8675;SDS011;4375;52.486;13.424;2024-02-26T00:52:02;27.73;;;10.73;;
8675;SDS011;4375;52.486;13.424;2024-02-26T00:54:28;26.70;;;10.10;;
8675;SDS011;4375;52.486;13.424;2024-02-26T00:56:53;25.10;;;10.97;;
8675;SDS011;4375;52.486;13.424;2024-02-26T00:59:19;24.40;;;10.77;;
8675;SDS011;4375;52.486;13.424;2024-02-26T01:01:45;26.03;;;10.77;;
8675;SDS011;4375;52.486;13.424;2024-02-26T01:04:10;26.63;;;9.73;;
8675;SDS011;4375;52.486;13.424;2024-02-26T01:06:37;23.27;;;9.70;;
8675;SDS011;4375;52.486;13.424;2024-02-26T01:09:02;25.63;;;10.27;;
8675;SDS011;4375;52.486;13.424;2024-02-26T01:11:28;27.30;;;10.60;;
8675;SDS011;4375;52.486;13.424;2024-02-26T01:13:54;26.47;;;11.10;;
8675;SDS011;4375;52.486;13.424;2024-02-26T01:16:22;24.60;;;10.23;;
8675;SDS011;4375;52.486;13.424;2024-02-26T01:18:50;25.27;;;11.50;;
8675;SDS011;4375;52.486;13.424;2024-02-26T01:21:16;28.73;;;11.00;;
8675;SDS011;4375;52.486;13.424;2024-02-26T01:23:41;26.63;;;10.87;;
8675;SDS011;4375;52.486;13.424;2024-02-26T01:26:07;24.13;;;10.10;;
8675;SDS011;4375;52.486;13.424;2024-02-26T01:28:33;21.30;;;8.60;;
8675;SDS011;4375;52.486;13.424;2024-02-26T01:30:58;27.80;;;11.07;;
8675;SDS011;4375;52.486;13.424;2024-02-26T01:33:25;24.47;;;10.50;;
8675;SDS011;4375;52.486;13.424;2024-02-26T01:35:51;24.43;;;10.13;;
8675;SDS011;4375;52.486;13.424;2024-02-26T01:38:18;32.73;;;12.53;;
8675;SDS011;4375;52.486;13.424;2024-02-26T01:40:43;28.27;;;11.57;;
8675;SDS011;4375;52.486;13.424;2024-02-26T01:43:09;29.70;;;11.00;;
8675;SDS011;4375;52.486;13.424;2024-02-26T01:45:35;27.37;;;10.50;;
8675;SDS011;4375;52.486;13.424;2024-02-26T01:48:00;27.80;;;11.97;;
8675;SDS011;4375;52.486;13.424;2024-02-26T01:50:26;23.60;;;9.87;;
8675;SDS011;4375;52.486;13.424;2024-02-26T01:52:52;24.80;;;10.53;;
8675;SDS011;4375;52.486;13.424;2024-02-26T01:55:20;26.90;;;9.93;;
8675;SDS011;4375;52.486;13.424;2024-02-26T01:57:48;25.27;;;10.23;;
8675;SDS011;4375;52.486;13.424;2024-02-26T02:00:16;23.63;;;9.17;;
8675;SDS011;4375;52.486;13.424;2024-02-26T02:02:43;27.20;;;9.33;;
8675;SDS011;4375;52.486;13.424;2024-02-26T02:05:11;23.80;;;9.33;;
8675;SDS011;4375;52.486;13.424;2024-02-26T02:07:39;21.77;;;8.37;;
8675;SDS011;4375;52.486;13.424;2024-02-26T02:10:06;26.97;;;9.30;;
8675;SDS011;4375;52.486;13.424;2024-02-26T02:12:32;23.67;;;8.00;;
8675;SDS011;4375;52.486;13.424;2024-02-26T02:14:59;22.20;;;9.13;;
8675;SDS011;4375;52.486;13.424;2024-02-26T02:17:25;23.90;;;8.77;;
8675;SDS011;4375;52.486;13.424;2024-02-26T02:19:52;25.73;;;8.80;;
8675;SDS011;4375;52.486;13.424;2024-02-26T02:22:18;24.07;;;7.50;;
8675;SDS011;4375;52.486;13.424;2024-02-26T02:24:43;22.20;;;8.33;;
8675;SDS011;4375;52.486;13.424;2024-02-26T02:27:10;21.93;;;7.90;;
8675;SDS011;4375;52.486;13.424;2024-02-26T02:29:35;24.43;;;8.07;;
8675;SDS011;4375;52.486;13.424;2024-02-26T02:32:02;22.57;;;8.27;;
8675;SDS011;4375;52.486;13.424;2024-02-26T02:34:29;27.70;;;8.10;;
8675;SDS011;4375;52.486;13.424;2024-02-26T02:36:56;20.70;;;8.00;;
8675;SDS011;4375;52.486;13.424;2024-02-26T02:39:22;20.53;;;7.70;;
8675;SDS011;4375;52.486;13.424;2024-02-26T02:41:48;21.83;;;7.90;;
8675;SDS011;4375;52.486;13.424;2024-02-26T02:44:13;22.23;;;8.60;;
8675;SDS011;4375;52.486;13.424;2024-02-26T02:46:39;26.97;;;8.60;;
8675;SDS011;4375;52.486;13.424;2024-02-26T02:49:08;23.77;;;8.10;;
8675;SDS011;4375;52.486;13.424;2024-02-26T02:51:35;23.60;;;9.07;;
8675;SDS011;4375;52.486;13.424;2024-02-26T02:54:00;24.50;;;8.20;;
8675;SDS011;4375;52.486;13.424;2024-02-26T02:56:26;21.60;;;7.00;;
8675;SDS011;4375;52.486;13.424;2024-02-26T02:58:52;24.73;;;7.93;;
8675;SDS011;4375;52.486;13.424;2024-02-26T03:01:17;22.57;;;7.30;;
8675;SDS011;4375;52.486;13.424;2024-02-26T03:03:43;20.83;;;7.73;;
8675;SDS011;4375;52.486;13.424;2024-02-26T03:06:09;19.50;;;6.40;;
8675;SDS011;4375;52.486;13.424;2024-02-26T03:08:34;19.50;;;7.10;;
8675;SDS011;4375;52.486;13.424;2024-02-26T03:11:03;24.60;;;7.40;;
8675;SDS011;4375;52.486;13.424;2024-02-26T03:13:29;23.20;;;7.07;;
8675;SDS011;4375;52.486;13.424;2024-02-26T03:15:54;19.87;;;6.30;;
8675;SDS011;4375;52.486;13.424;2024-02-26T03:18:20;19.93;;;7.20;;
8675;SDS011;4375;52.486;13.424;2024-02-26T03:20:46;21.37;;;7.40;;
8675;SDS011;4375;52.486;13.424;2024-02-26T03:23:12;19.40;;;6.87;;
8675;SDS011;4375;52.486;13.424;2024-02-26T03:25:41;20.50;;;7.20;;
8675;SDS011;4375;52.486;13.424;2024-02-26T03:28:07;18.50;;;6.23;;
8675;SDS011;4375;52.486;13.424;2024-02-26T03:30:33;21.80;;;7.13;;
8675;SDS011;4375;52.486;13.424;2024-02-26T03:32:59;22.03;;;7.40;;
8675;SDS011;4375;52.486;13.424;2024-02-26T03:35:25;20.50;;;7.33;;
8675;SDS011;4375;52.486;13.424;2024-02-26T03:37:50;23.03;;;8.17;;
8675;SDS011;4375;52.486;13.424;2024-02-26T03:40:16;20.97;;;7.17;;
8675;SDS011;4375;52.486;13.424;2024-02-26T03:42:44;21.07;;;7.63;;
8675;SDS011;4375;52.486;13.424;2024-02-26T03:45:10;21.60;;;7.73;;
8675;SDS011;4375;52.486;13.424;2024-02-26T03:47:37;20.93;;;8.03;;
8675;SDS011;4375;52.486;13.424;2024-02-26T03:50:03;22.63;;;8.03;;
8675;SDS011;4375;52.486;13.424;2024-02-26T03:52:29;23.00;;;8.60;;
8675;SDS011;4375;52.486;13.424;2024-02-26T03:54:55;22.20;;;8.07;;
8675;SDS011;4375;52.486;13.424;2024-02-26T03:57:21;20.80;;;7.30;;
8675;SDS011;4375;52.486;13.424;2024-02-26T03:59:46;21.70;;;7.50;;
8675;SDS011;4375;52.486;13.424;2024-02-26T04:02:12;21.03;;;7.87;;
8675;SDS011;4375;52.486;13.424;2024-02-26T04:04:37;22.70;;;7.10;;
8675;SDS011;4375;52.486;13.424;2024-02-26T04:07:03;24.57;;;8.17;;
8675;SDS011;4375;52.486;13.424;2024-02-26T04:09:30;25.43;;;9.60;;
8675;SDS011;4375;52.486;13.424;2024-02-26T04:11:56;23.27;;;7.93;;
8675;SDS011;4375;52.486;13.424;2024-02-26T04:14:22;21.03;;;8.10;;
8675;SDS011;4375;52.486;13.424;2024-02-26T04:16:48;26.37;;;8.77;;
8675;SDS011;4375;52.486;13.424;2024-02-26T04:19:16;21.90;;;7.40;;
8675;SDS011;4375;52.486;13.424;2024-02-26T04:21:42;22.03;;;7.70;;
8675;SDS011;4375;52.486;13.424;2024-02-26T04:24:07;22.30;;;8.50;;
8675;SDS011;4375;52.486;13.424;2024-02-26T04:26:34;21.33;;;7.33;;
8675;SDS011;4375;52.486;13.424;2024-02-26T04:28:59;24.27;;;8.53;;
8675;SDS011;4375;52.486;13.424;2024-02-26T04:31:25;22.47;;;8.37;;
8675;SDS011;4375;52.486;13.424;2024-02-26T04:33:51;23.27;;;8.43;;
8675;SDS011;4375;52.486;13.424;2024-02-26T04:36:17;22.93;;;8.60;;
8675;SDS011;4375;52.486;13.424;2024-02-26T04:38:43;22.77;;;8.77;;
8675;SDS011;4375;52.486;13.424;2024-02-26T04:41:09;23.33;;;8.97;;
8675;SDS011;4375;52.486;13.424;2024-02-26T04:43:35;20.50;;;7.73;;
8675;SDS011;4375;52.486;13.424;2024-02-26T04:46:06;29.23;;;8.37;;
8675;SDS011;4375;52.486;13.424;2024-02-26T04:48:35;22.97;;;8.60;;
8675;SDS011;4375;52.486;13.424;2024-02-26T04:51:01;26.40;;;8.97;;
8675;SDS011;4375;52.486;13.424;2024-02-26T04:53:28;23.20;;;9.10;;
8675;SDS011;4375;52.486;13.424;2024-02-26T04:55:54;22.60;;;8.60;;
8675;SDS011;4375;52.486;13.424;2024-02-26T04:58:19;28.47;;;10.13;;
8675;SDS011;4375;52.486;13.424;2024-02-26T05:00:45;23.07;;;9.63;;
8675;SDS011;4375;52.486;13.424;2024-02-26T05:03:10;26.27;;;10.20;;
8675;SDS011;4375;52.486;13.424;2024-02-26T05:05:40;26.73;;;9.93;;
8675;SDS011;4375;52.486;13.424;2024-02-26T05:08:09;26.73;;;9.73;;
8675;SDS011;4375;52.486;13.424;2024-02-26T05:10:35;27.43;;;10.10;;
8675;SDS011;4375;52.486;13.424;2024-02-26T05:13:05;24.07;;;9.90;;
8675;SDS011;4375;52.486;13.424;2024-02-26T05:15:30;23.57;;;9.60;;
8675;SDS011;4375;52.486;13.424;2024-02-26T05:17:57;23.80;;;9.23;;
8675;SDS011;4375;52.486;13.424;2024-02-26T05:20:23;26.60;;;9.87;;
8675;SDS011;4375;52.486;13.424;2024-02-26T05:22:48;28.77;;;10.20;;
8675;SDS011;4375;52.486;13.424;2024-02-26T05:25:15;27.37;;;11.60;;
8675;SDS011;4375;52.486;13.424;2024-02-26T05:27:41;27.80;;;11.17;;
8675;SDS011;4375;52.486;13.424;2024-02-26T05:30:08;26.30;;;10.43;;
8675;SDS011;4375;52.486;13.424;2024-02-26T05:32:34;24.80;;;10.30;;
8675;SDS011;4375;52.486;13.424;2024-02-26T05:35:00;25.43;;;10.83;;
8675;SDS011;4375;52.486;13.424;2024-02-26T05:37:28;25.97;;;11.10;;
8675;SDS011;4375;52.486;13.424;2024-02-26T05:39:53;25.80;;;11.30;;
8675;SDS011;4375;52.486;13.424;2024-02-26T05:42:19;30.50;;;11.27;;
8675;SDS011;4375;52.486;13.424;2024-02-26T05:44:44;30.63;;;11.57;;
8675;SDS011;4375;52.486;13.424;2024-02-26T05:47:10;29.43;;;12.27;;
8675;SDS011;4375;52.486;13.424;2024-02-26T05:49:36;34.67;;;10.50;;
8675;SDS011;4375;52.486;13.424;2024-02-26T05:52:01;28.57;;;11.30;;
8675;SDS011;4375;52.486;13.424;2024-02-26T05:54:27;30.40;;;12.20;;
8675;SDS011;4375;52.486;13.424;2024-02-26T05:56:52;31.07;;;12.23;;
8675;SDS011;4375;52.486;13.424;2024-02-26T05:59:18;28.63;;;11.20;;
8675;SDS011;4375;52.486;13.424;2024-02-26T06:01:44;32.13;;;12.17;;
8675;SDS011;4375;52.486;13.424;2024-02-26T06:04:09;29.13;;;11.50;;
8675;SDS011;4375;52.486;13.424;2024-02-26T06:06:36;30.93;;;12.40;;
8675;SDS011;4375;52.486;13.424;2024-02-26T06:09:01;28.97;;;11.70;;
8675;SDS011;4375;52.486;13.424;2024-02-26T06:11:30;31.07;;;12.60;;
8675;SDS011;4375;52.486;13.424;2024-02-26T06:13:55;26.60;;;10.30;;
8675;SDS011;4375;52.486;13.424;2024-02-26T06:16:21;31.10;;;11.77;;
8675;SDS011;4375;52.486;13.424;2024-02-26T06:18:47;28.43;;;11.27;;
8675;SDS011;4375;52.486;13.424;2024-02-26T06:21:12;32.47;;;12.93;;
8675;SDS011;4375;52.486;13.424;2024-02-26T06:23:38;35.60;;;13.13;;
8675;SDS011;4375;52.486;13.424;2024-02-26T06:26:05;30.93;;;11.63;;
8675;SDS011;4375;52.486;13.424;2024-02-26T06:28:30;26.53;;;11.90;;
8675;SDS011;4375;52.486;13.424;2024-02-26T06:30:59;31.63;;;12.50;;
8675;SDS011;4375;52.486;13.424;2024-02-26T06:33:24;30.70;;;12.90;;
8675;SDS011;4375;52.486;13.424;2024-02-26T06:35:50;28.23;;;12.90;;
8675;SDS011;4375;52.486;13.424;2024-02-26T06:38:16;29.17;;;12.30;;
8675;SDS011;4375;52.486;13.424;2024-02-26T06:40:42;33.70;;;12.37;;
8675;SDS011;4375;52.486;13.424;2024-02-26T06:43:09;32.43;;;13.53;;
8675;SDS011;4375;52.486;13.424;2024-02-26T06:45:34;38.10;;;12.90;;
8675;SDS011;4375;52.486;13.424;2024-02-26T06:48:00;31.03;;;13.30;;
8675;SDS011;4375;52.486;13.424;2024-02-26T06:50:27;33.60;;;13.77;;
8675;SDS011;4375;52.486;13.424;2024-02-26T06:52:53;34.10;;;12.63;;
8675;SDS011;4375;52.486;13.424;2024-02-26T06:55:18;36.03;;;13.07;;
8675;SDS011;4375;52.486;13.424;2024-02-26T06:57:44;30.37;;;13.27;;
8675;SDS011;4375;52.486;13.424;2024-02-26T07:00:10;30.53;;;12.87;;
8675;SDS011;4375;52.486;13.424;2024-02-26T07:02:39;30.27;;;12.97;;
8675;SDS011;4375;52.486;13.424;2024-02-26T07:05:05;30.83;;;13.70;;
8675;SDS011;4375;52.486;13.424;2024-02-26T07:07:31;34.60;;;13.90;;
8675;SDS011;4375;52.486;13.424;2024-02-26T07:09:57;36.03;;;14.80;;
8675;SDS011;4375;52.486;13.424;2024-02-26T07:12:23;34.07;;;13.70;;
8675;SDS011;4375;52.486;13.424;2024-02-26T07:14:49;34.20;;;14.17;;
8675;SDS011;4375;52.486;13.424;2024-02-26T07:17:15;30.67;;;13.73;;
8675;SDS011;4375;52.486;13.424;2024-02-26T07:19:41;30.07;;;13.37;;
8675;SDS011;4375;52.486;13.424;2024-02-26T07:22:07;30.20;;;13.23;;
8675;SDS011;4375;52.486;13.424;2024-02-26T07:24:33;30.27;;;13.50;;
8675;SDS011;4375;52.486;13.424;2024-02-26T07:26:59;30.30;;;14.50;;
8675;SDS011;4375;52.486;13.424;2024-02-26T07:29:24;35.60;;;16.13;;
8675;SDS011;4375;52.486;13.424;2024-02-26T07:31:50;39.17;;;15.00;;
8675;SDS011;4375;52.486;13.424;2024-02-26T07:34:16;36.57;;;14.60;;
8675;SDS011;4375;52.486;13.424;2024-02-26T07:36:42;34.53;;;15.03;;
8675;SDS011;4375;52.486;13.424;2024-02-26T07:39:07;30.77;;;14.60;;
8675;SDS011;4375;52.486;13.424;2024-02-26T07:41:33;33.07;;;15.33;;
8675;SDS011;4375;52.486;13.424;2024-02-26T07:43:58;34.90;;;15.07;;
8675;SDS011;4375;52.486;13.424;2024-02-26T07:46:24;31.33;;;14.03;;
8675;SDS011;4375;52.486;13.424;2024-02-26T07:48:50;38.63;;;15.20;;
8675;SDS011;4375;52.486;13.424;2024-02-26T07:51:16;30.73;;;13.73;;
8675;SDS011;4375;52.486;13.424;2024-02-26T07:53:42;34.10;;;14.00;;
8675;SDS011;4375;52.486;13.424;2024-02-26T07:56:08;35.80;;;14.77;;
8675;SDS011;4375;52.486;13.424;2024-02-26T07:58:34;35.97;;;15.93;;
8675;SDS011;4375;52.486;13.424;2024-02-26T08:01:00;36.87;;;14.73;;
8675;SDS011;4375;52.486;13.424;2024-02-26T08:03:26;32.37;;;14.87;;
8675;SDS011;4375;52.486;13.424;2024-02-26T08:05:51;34.00;;;15.03;;
8675;SDS011;4375;52.486;13.424;2024-02-26T08:08:17;33.00;;;15.10;;
8675;SDS011;4375;52.486;13.424;2024-02-26T08:10:43;33.80;;;15.23;;
8675;SDS011;4375;52.486;13.424;2024-02-26T08:13:08;34.43;;;14.30;;
8675;SDS011;4375;52.486;13.424;2024-02-26T08:15:37;36.67;;;16.27;;
8675;SDS011;4375;52.486;13.424;2024-02-26T08:18:03;32.30;;;14.70;;
8675;SDS011;4375;52.486;13.424;2024-02-26T08:20:29;33.90;;;15.70;;
8675;SDS011;4375;52.486;13.424;2024-02-26T08:22:56;33.53;;;14.30;;
8675;SDS011;4375;52.486;13.424;2024-02-26T08:25:22;35.10;;;15.60;;
8675;SDS011;4375;52.486;13.424;2024-02-26T08:27:48;35.70;;;14.60;;
8675;SDS011;4375;52.486;13.424;2024-02-26T08:30:14;30.80;;;13.70;;
8675;SDS011;4375;52.486;13.424;2024-02-26T08:32:42;34.57;;;15.53;;
8675;SDS011;4375;52.486;13.424;2024-02-26T08:35:09;37.13;;;16.27;;
8675;SDS011;4375;52.486;13.424;2024-02-26T08:37:34;35.03;;;14.87;;
8675;SDS011;4375;52.486;13.424;2024-02-26T08:40:00;34.80;;;16.40;;
8675;SDS011;4375;52.486;13.424;2024-02-26T08:42:25;41.40;;;19.93;;
8675;SDS011;4375;52.486;13.424;2024-02-26T08:44:51;41.23;;;19.70;;
8675;SDS011;4375;52.486;13.424;2024-02-26T08:47:17;38.20;;;16.90;;
8675;SDS011;4375;52.486;13.424;2024-02-26T08:49:43;34.10;;;16.97;;
8675;SDS011;4375;52.486;13.424;2024-02-26T08:52:09;35.07;;;17.10;;
8675;SDS011;4375;52.486;13.424;2024-02-26T08:54:35;39.67;;;17.30;;
8675;SDS011;4375;52.486;13.424;2024-02-26T08:57:01;33.60;;;15.63;;
8675;SDS011;4375;52.486;13.424;2024-02-26T08:59:27;34.33;;;14.50;;
8675;SDS011;4375;52.486;13.424;2024-02-26T09:01:53;35.23;;;16.63;;
8675;SDS011;4375;52.486;13.424;2024-02-26T09:04:19;34.60;;;14.70;;
8675;SDS011;4375;52.486;13.424;2024-02-26T09:06:44;36.60;;;14.50;;
8675;SDS011;4375;52.486;13.424;2024-02-26T09:09:10;31.10;;;13.03;;
8675;SDS011;4375;52.486;13.424;2024-02-26T09:11:36;32.60;;;14.93;;
8675;SDS011;4375;52.486;13.424;2024-02-26T09:14:01;41.17;;;16.67;;
8675;SDS011;4375;52.486;13.424;2024-02-26T09:16:28;46.77;;;15.70;;
8675;SDS011;4375;52.486;13.424;2024-02-26T09:18:54;33.53;;;14.83;;
8675;SDS011;4375;52.486;13.424;2024-02-26T09:21:20;34.00;;;15.30;;
8675;SDS011;4375;52.486;13.424;2024-02-26T09:23:50;34.10;;;15.00;;
8675;SDS011;4375;52.486;13.424;2024-02-26T09:26:16;34.97;;;14.80;;
8675;SDS011;4375;52.486;13.424;2024-02-26T09:28:42;33.97;;;17.17;;
8675;SDS011;4375;52.486;13.424;2024-02-26T09:31:07;37.13;;;16.47;;
8675;SDS011;4375;52.486;13.424;2024-02-26T09:33:33;38.30;;;15.70;;
8675;SDS011;4375;52.486;13.424;2024-02-26T09:35:59;35.27;;;15.50;;
8675;SDS011;4375;52.486;13.424;2024-02-26T09:38:27;38.17;;;14.63;;
8675;SDS011;4375;52.486;13.424;2024-02-26T09:40:54;29.80;;;13.57;;
8675;SDS011;4375;52.486;13.424;2024-02-26T09:43:23;29.90;;;13.23;;
8675;SDS011;4375;52.486;13.424;2024-02-26T09:45:52;31.70;;;13.87;;
8675;SDS011;4375;52.486;13.424;2024-02-26T09:48:18;31.53;;;13.40;;
8675;SDS011;4375;52.486;13.424;2024-02-26T09:50:45;31.77;;;14.67;;
8675;SDS011;4375;52.486;13.424;2024-02-26T09:53:11;28.27;;;13.77;;
8675;SDS011;4375;52.486;13.424;2024-02-26T09:55:38;29.53;;;13.20;;
8675;SDS011;4375;52.486;13.424;2024-02-26T09:58:04;31.80;;;14.43;;
8675;SDS011;4375;52.486;13.424;2024-02-26T10:00:31;33.17;;;14.33;;
8675;SDS011;4375;52.486;13.424;2024-02-26T10:02:58;29.27;;;12.17;;
8675;SDS011;4375;52.486;13.424;2024-02-26T10:05:29;28.37;;;12.57;;
8675;SDS011;4375;52.486;13.424;2024-02-26T10:07:55;31.87;;;13.97;;
8675;SDS011;4375;52.486;13.424;2024-02-26T10:10:22;29.13;;;12.27;;
8675;SDS011;4375;52.486;13.424;2024-02-26T10:12:48;34.90;;;12.70;;
8675;SDS011;4375;52.486;13.424;2024-02-26T10:15:14;27.87;;;11.50;;
8675;SDS011;4375;52.486;13.424;2024-02-26T10:17:41;29.43;;;12.93;;
8675;SDS011;4375;52.486;13.424;2024-02-26T10:20:11;26.93;;;11.97;;
8675;SDS011;4375;52.486;13.424;2024-02-26T10:22:38;31.07;;;13.23;;
8675;SDS011;4375;52.486;13.424;2024-02-26T10:25:03;33.03;;;12.67;;
8675;SDS011;4375;52.486;13.424;2024-02-26T10:27:29;32.87;;;12.60;;
8675;SDS011;4375;52.486;13.424;2024-02-26T10:29:56;33.03;;;14.90;;
8675;SDS011;4375;52.486;13.424;2024-02-26T10:32:22;30.57;;;13.33;;
8675;SDS011;4375;52.486;13.424;2024-02-26T10:34:48;35.63;;;15.47;;
8675;SDS011;4375;52.486;13.424;2024-02-26T10:37:13;37.60;;;15.83;;
8675;SDS011;4375;52.486;13.424;2024-02-26T10:39:39;36.40;;;14.60;;
8675;SDS011;4375;52.486;13.424;2024-02-26T10:42:12;28.97;;;11.47;;
8675;SDS011;4375;52.486;13.424;2024-02-26T10:44:39;30.10;;;11.13;;
8675;SDS011;4375;52.486;13.424;2024-02-26T10:47:07;28.77;;;11.70;;
8675;SDS011;4375;52.486;13.424;2024-02-26T10:49:33;33.77;;;10.40;;
8675;SDS011;4375;52.486;13.424;2024-02-26T10:52:00;33.47;;;10.77;;
8675;SDS011;4375;52.486;13.424;2024-02-26T10:54:29;32.73;;;12.27;;
8675;SDS011;4375;52.486;13.424;2024-02-26T10:56:57;30.30;;;11.03;;
8675;SDS011;4375;52.486;13.424;2024-02-26T10:59:24;27.20;;;11.00;;
8675;SDS011;4375;52.486;13.424;2024-02-26T11:01:51;27.50;;;10.17;;
8675;SDS011;4375;52.486;13.424;2024-02-26T11:04:17;27.57;;;11.63;;
8675;SDS011;4375;52.486;13.424;2024-02-26T11:06:44;26.43;;;11.37;;
8675;SDS011;4375;52.486;13.424;2024-02-26T11:09:11;28.83;;;11.40;;
8675;SDS011;4375;52.486;13.424;2024-02-26T11:11:41;29.33;;;12.07;;
8675;SDS011;4375;52.486;13.424;2024-02-26T11:14:08;26.73;;;10.33;;
8675;SDS011;4375;52.486;13.424;2024-02-26T11:16:35;30.90;;;10.90;;
8675;SDS011;4375;52.486;13.424;2024-02-26T11:19:02;29.90;;;10.37;;
8675;SDS011;4375;52.486;13.424;2024-02-26T11:21:28;27.10;;;10.50;;
8675;SDS011;4375;52.486;13.424;2024-02-26T11:24:12;27.00;;;10.33;;
8675;SDS011;4375;52.486;13.424;2024-02-26T11:26:42;30.63;;;11.20;;
8675;SDS011;4375;52.486;13.424;2024-02-26T11:29:24;38.63;;;13.53;;
8675;SDS011;4375;52.486;13.424;2024-02-26T11:31:52;35.07;;;16.10;;
8675;SDS011;4375;52.486;13.424;2024-02-26T11:34:18;26.40;;;10.63;;
8675;SDS011;4375;52.486;13.424;2024-02-26T11:36:44;33.83;;;13.60;;
8675;SDS011;4375;52.486;13.424;2024-02-26T11:39:11;31.40;;;12.47;;
8675;SDS011;4375;52.486;13.424;2024-02-26T11:41:38;31.03;;;11.47;;
8675;SDS011;4375;52.486;13.424;2024-02-26T11:44:03;32.37;;;12.77;;
8675;SDS011;4375;52.486;13.424;2024-02-26T11:46:41;30.30;;;12.80;;
8675;SDS011;4375;52.486;13.424;2024-02-26T11:51:52;28.20;;;11.00;;
8675;SDS011;4375;52.486;13.424;2024-02-26T11:54:40;29.10;;;11.13;;
8675;SDS011;4375;52.486;13.424;2024-02-26T11:57:38;24.47;;;9.60;;
8675;SDS011;4375;52.486;13.424;2024-02-26T12:02:44;25.23;;;8.70;;
8675;SDS011;4375;52.486;13.424;2024-02-26T12:05:23;25.23;;;9.20;;
8675;SDS011;4375;52.486;13.424;2024-02-26T12:10:27;26.57;;;9.47;;
8675;SDS011;4375;52.486;13.424;2024-02-26T12:12:59;24.07;;;9.00;;
8675;SDS011;4375;52.486;13.424;2024-02-26T12:15:32;23.97;;;8.70;;
8675;SDS011;4375;52.486;13.424;2024-02-26T12:18:03;23.40;;;8.33;;
8675;SDS011;4375;52.486;13.424;2024-02-26T12:20:30;24.10;;;8.97;;
8675;SDS011;4375;52.486;13.424;2024-02-26T12:22:57;24.43;;;9.20;;
8675;SDS011;4375;52.486;13.424;2024-02-26T12:25:26;26.90;;;10.07;;
8675;SDS011;4375;52.486;13.424;2024-02-26T12:27:53;26.17;;;10.83;;
8675;SDS011;4375;52.486;13.424;2024-02-26T12:30:21;25.40;;;10.47;;
8675;SDS011;4375;52.486;13.424;2024-02-26T12:32:47;28.53;;;10.50;;
8675;SDS011;4375;52.486;13.424;2024-02-26T12:35:15;22.30;;;7.70;;
8675;SDS011;4375;52.486;13.424;2024-02-26T12:37:42;23.17;;;7.30;;
8675;SDS011;4375;52.486;13.424;2024-02-26T12:40:08;23.27;;;6.90;;
8675;SDS011;4375;52.486;13.424;2024-02-26T12:42:35;23.70;;;7.07;;
8675;SDS011;4375;52.486;13.424;2024-02-26T12:45:06;23.57;;;9.27;;
8675;SDS011;4375;52.486;13.424;2024-02-26T12:47:41;25.23;;;10.10;;
8675;SDS011;4375;52.486;13.424;2024-02-26T12:50:14;28.07;;;11.83;;
8675;SDS011;4375;52.486;13.424;2024-02-26T12:52:43;24.57;;;9.00;;
8675;SDS011;4375;52.486;13.424;2024-02-26T12:55:11;25.23;;;8.80;;
8675;SDS011;4375;52.486;13.424;2024-02-26T12:57:41;25.03;;;9.27;;
8675;SDS011;4375;52.486;13.424;2024-02-26T13:00:08;26.73;;;7.90;;
8675;SDS011;4375;52.486;13.424;2024-02-26T13:02:38;24.90;;;9.77;;
8675;SDS011;4375;52.486;13.424;2024-02-26T13:05:05;26.87;;;9.40;;
8675;SDS011;4375;52.486;13.424;2024-02-26T13:07:33;29.50;;;10.13;;
8675;SDS011;4375;52.486;13.424;2024-02-26T13:09:59;27.80;;;10.23;;
8675;SDS011;4375;52.486;13.424;2024-02-26T13:12:25;28.10;;;10.03;;
8675;SDS011;4375;52.486;13.424;2024-02-26T13:15:03;29.20;;;10.40;;
8675;SDS011;4375;52.486;13.424;2024-02-26T13:17:32;24.83;;;8.70;;
8675;SDS011;4375;52.486;13.424;2024-02-26T13:19:59;25.13;;;9.00;;
8675;SDS011;4375;52.486;13.424;2024-02-26T13:22:24;28.73;;;9.90;;
8675;SDS011;4375;52.486;13.424;2024-02-26T13:24:53;25.77;;;10.47;;
8675;SDS011;4375;52.486;13.424;2024-02-26T13:27:23;30.87;;;10.50;;
8675;SDS011;4375;52.486;13.424;2024-02-26T13:30:01;28.13;;;10.63;;
8675;SDS011;4375;52.486;13.424;2024-02-26T13:32:27;25.07;;;10.00;;
8675;SDS011;4375;52.486;13.424;2024-02-26T13:35:03;35.50;;;11.60;;
8675;SDS011;4375;52.486;13.424;2024-02-26T13:37:31;29.50;;;11.50;;
8675;SDS011;4375;52.486;13.424;2024-02-26T13:39:56;24.30;;;9.03;;
8675;SDS011;4375;52.486;13.424;2024-02-26T13:42:22;23.87;;;7.20;;
8675;SDS011;4375;52.486;13.424;2024-02-26T13:44:48;25.00;;;7.57;;
8675;SDS011;4375;52.486;13.424;2024-02-26T13:47:14;24.87;;;7.17;;
8675;SDS011;4375;52.486;13.424;2024-02-26T13:49:41;21.20;;;6.40;;
8675;SDS011;4375;52.486;13.424;2024-02-26T13:52:06;28.47;;;9.20;;
8675;SDS011;4375;52.486;13.424;2024-02-26T13:54:32;26.20;;;8.23;;
8675;SDS011;4375;52.486;13.424;2024-02-26T13:56:58;21.80;;;7.23;;
8675;SDS011;4375;52.486;13.424;2024-02-26T13:59:24;22.20;;;7.20;;
8675;SDS011;4375;52.486;13.424;2024-02-26T14:01:49;21.13;;;6.87;;
8675;SDS011;4375;52.486;13.424;2024-02-26T14:04:15;22.80;;;7.47;;
8675;SDS011;4375;52.486;13.424;2024-02-26T14:06:41;24.53;;;9.03;;
8675;SDS011;4375;52.486;13.424;2024-02-26T14:09:07;28.23;;;9.33;;
8675;SDS011;4375;52.486;13.424;2024-02-26T14:11:33;23.60;;;8.17;;
8675;SDS011;4375;52.486;13.424;2024-02-26T14:13:59;25.80;;;8.73;;
8675;SDS011;4375;52.486;13.424;2024-02-26T14:16:25;23.70;;;8.43;;
8675;SDS011;4375;52.486;13.424;2024-02-26T14:18:50;23.93;;;8.03;;
8675;SDS011;4375;52.486;13.424;2024-02-26T14:21:16;26.87;;;8.80;;
8675;SDS011;4375;52.486;13.424;2024-02-26T14:23:42;25.57;;;7.67;;
8675;SDS011;4375;52.486;13.424;2024-02-26T14:26:09;22.70;;;7.20;;
8675;SDS011;4375;52.486;13.424;2024-02-26T14:28:36;22.40;;;7.00;;
8675;SDS011;4375;52.486;13.424;2024-02-26T14:31:02;23.30;;;7.30;;
8675;SDS011;4375;52.486;13.424;2024-02-26T14:33:29;22.70;;;8.20;;
8675;SDS011;4375;52.486;13.424;2024-02-26T14:35:54;26.47;;;8.43;;
8675;SDS011;4375;52.486;13.424;2024-02-26T14:38:20;23.60;;;8.10;;
8675;SDS011;4375;52.486;13.424;2024-02-26T14:40:45;20.43;;;8.03;;
8675;SDS011;4375;52.486;13.424;2024-02-26T14:43:12;22.77;;;8.20;;
8675;SDS011;4375;52.486;13.424;2024-02-26T14:45:38;21.60;;;7.50;;